Wauthier-Braine - Challenge du Brabant Wallon

Le jogging des Boignées à Wauthier-Braine (11.20 km)

Classement complet

CHALLENGE BRABANT WALLON
JOGGING DES BOIGNÉES - WAUTHIER-BRAINE
DISTANCE 11.20 km
dimanche 1 mai 2016
 
Place NOM PRENOM EQUIPE Catégorie Pl/Cat. temps temps/km Vitesse
####                
1 HUMBLET FRANCOIS TRIGT M/20-29 1 00:42:25 03:47 15.84
2 DARRAZI YOUNES USBW ROAD TEAM M/20-29 2 00:43:35 03:53 15.42
3 DEMEULEMEESTER GUILLAUME TRAIN 7 M/30-39 1 00:44:13 03:57 15.20
4 KEBIR AKLI CEPAL M/30-39 2 00:44:34 03:59 15.08
5 CHEHBOUNE RACHID   M/40-49 1 00:44:54 04:01 14.97
6 DESCAMPE ARNAUD RIWA M/20-29 3 00:45:16 04:03 14.85
7 MORREN JEREMY RIWA M/20-29 4 00:45:17 04:03 14.84
8 IWENS ALAIN HOOIBERGLOPERS M/50-59 1 00:45:32 04:04 14.76
9 JACQUEMIN ALEXANDRE   M/20-29 5 00:46:20 04:08 14.50
10 DUPUIS CORENTIN   M/30-39 3 00:46:27 04:09 14.47
11 TAMIGNEAUX CEDRIC NAC M/30-39 4 00:46:30 04:09 14.45
12 GOMEZ MATEO RUHAC M/30-39 5 00:46:33 04:09 14.44
13 PUTZEYS MATHIEU TRAIN 7 M/30-39 6 00:46:48 04:11 14.36
14 RECOUR LAURENT TRAIN 7 M/40-49 2 00:46:54 04:11 14.33
15 SNEESSENS MICHAEL CS DYLE M/20-29 6 00:46:55 04:11 14.32
16 EL MAIMOUNI SAID NLMK CLABECQ M/30-39 7 00:47:00 04:12 14.30
17 NANIWE GILLES KURISTO M/40-49 3 00:47:10 04:13 14.25
18 LAMBION ARNAUD   M/40-49 4 00:47:12 04:13 14.24
19 BUIS QUENTIN RONVAU M/20-29 7 00:47:36 04:15 14.12
20 FADOUL TAHA CACE M/40-49 5 00:47:49 04:16 14.05
21 LARELLE JULIAN CABW M/15-19 1 00:47:56 04:17 14.02
22 VANDROOGENBROECK VIRGINIE TRAIN 7 D/40-49 1 00:48:01 04:17 14.00
23 CREELLE ROBBE   M/15-19 2 00:48:04 04:17 13.98
24 DEMUYSER CHRISTOPHE SPT WAVRE M/30-39 8 00:48:09 04:18 13.96
25 LEESTMANS ADRIEN   M/30-39 9 00:48:21 04:19 13.90
26 MARTIN OLIVIER   M/20-29 8 00:48:27 04:20 13.87
27 MAGIS ALVARIC RIWA M/20-29 9 00:48:28 04:20 13.87
28 QUEVY ERIC JET M/40-49 6 00:48:32 04:20 13.85
29 LELIEVRE THIERRY JOGGANS M/40-49 7 00:48:33 04:20 13.84
30 PAIRONA MARCO   M/40-49 8 00:48:36 04:20 13.83
31 EL YOUSFI RIDA   M/30-39 10 00:48:50 04:22 13.76
32 NIEGHO MIKE   M/20-29 10 00:49:12 04:24 13.66
33 DESSY MICHAEL   M/40-49 9 00:49:17 04:24 13.64
34 DESCAMPS EMILE JAMES M/15-19 3 00:49:22 04:24 13.61
35 VANDERLINDEN MARC TRAIN 7 M/50-59 2 00:49:31 04:25 13.57
36 EGGERICKX PIERRE TRIGT M/20-29 11 00:49:32 04:25 13.57
37 RODRIGUEZ RECIO LUIS ANTONIO CEPAL M/50-59 3 00:49:36 04:26 13.55
38 MARTIN YVES HUPPSALAOTTENBURG M/40-49 10 00:49:39 04:26 13.53
39 DE BUYSER PAUL SPVI M/60-69 1 00:49:45 04:27 13.51
40 VAN HORICK BRUNO   M/30-39 11 00:49:58 04:28 13.45
41 MARION AMAURY   M/20-29 12 00:50:00 04:28 13.44
42 CRESPINET ALAIN RCB M/50-59 4 00:50:11 04:29 13.39
43 SHEHU NASSER   M/50-59 5 00:50:16 04:29 13.37
44 WAROQUIER YVES NAC M/50-59 6 00:50:48 04:32 13.23
45 SLIMANI KARIM   M/20-29 13 00:50:50 04:32 13.22
46 DEMOLDER YOANN RIWA M/20-29 14 00:50:51 04:32 13.22
47 DE DECKER MATHIEU USBW ROAD TEAM M/20-29 15 00:50:52 04:33 13.21
48 GHYSSELINCKX CHRISTOPHE JAMES M/30-39 12 00:50:57 04:33 13.19
49 WILLEMS OSKAR   M/15-19 4 00:51:11 04:34 13.13
50 DAMOISEAUX VINCENT KURISTO M/50-59 7 00:51:21 04:35 13.09
51 SIMEONS PATRICK NAC M/30-39 13 00:51:32 04:36 13.04
52 QUINTELA DANIEL   M/40-49 11 00:51:33 04:36 13.04
53 DURITA ZOLIKA JET M/50-59 8 00:51:38 04:37 13.01
54 SCHREURS SEBASTIEN   M/30-39 14 00:51:40 04:37 13.01
55 VAN RAEMDONCK GILLES RIWA M/50-59 9 00:51:41 04:37 13.00
56 LEFEVRE BENOIT   M/30-39 15 00:51:43 04:37 12.99
57 SEN ERCAN CEPAL M/40-49 12 00:51:48 04:37 12.97
58 CORDIER PASCAL URBAN TRI TEAM M/40-49 13 00:52:01 04:39 12.92
59 ROSSIGNOL OLIVIER SPORTIVAMENTE M/40-49 14 00:52:04 04:39 12.91
60 VAN DONGHEN PATRICE   M/30-39 16 00:52:05 04:39 12.90
61 LORGE JEAN MARC RONVAU M/40-49 15 00:52:10 04:39 12.88
62 LOTTE AYRTON   M/20-29 16 00:52:16 04:40 12.86
63 DIERICKX JOSE NAC M/60-69 2 00:52:19 04:40 12.84
64 DEQUENNE VINCENT   M/50-59 10 00:52:24 04:41 12.82
65 RENS JEAN   M/40-49 16 00:52:26 04:41 12.82
66 WILLEKENS MARIJKE TRAIN 7 D/50-59 1 00:52:32 04:41 12.79
67 VAN DEN BROECK HERMAN FURALOPE M/40-49 17 00:52:38 04:42 12.77
68 NEMEGAIRE LAURENT   M/40-49 18 00:52:44 04:43 12.74
69 DE MESMAECKER BJORN TRAIN 7 M/40-49 19 00:52:48 04:43 12.73
70 WELLE ALEXANDRE   M/30-39 17 00:52:57 04:44 12.69
71 GIGOT JACQUES CEPAL M/40-49 20 00:52:58 04:44 12.69
72 CARRE STEPHANE   M/40-49 21 00:53:04 04:44 12.66
73 PORRE LAURENT SBT M/30-39 18 00:53:08 04:45 12.65
74 BURION ALAIN USBW ROAD TEAM M/40-49 22 00:53:14 04:45 12.62
75 PEETERS KAREN DEMARSIN D/40-49 2 00:53:16 04:45 12.62
76 DAUTREBANDE GILLES OR WALLONIE M/40-49 23 00:53:29 04:47 12.56
77 VANDERHAEGEN SAMUEL JCPMF GENAPPE M/30-39 19 00:53:30 04:47 12.56
78 SCUBLA MICHAEL NAC M/20-29 17 00:53:32 04:47 12.55
79 CHAMPAGNE JEAN-CHRISTOPHE JE COURS A INCOURT M/30-39 20 00:53:33 04:47 12.55
80 EL KHALDI ABDEL   M/50-59 11 00:53:39 04:47 12.53
81 DEVICK EMILY NAC D/40-49 3 00:53:40 04:48 12.52
82 VAN WYNENDAELE DIMITRY JOGGANS M/40-49 24 00:53:46 04:48 12.50
83 RYCKEN PIETER KURISTO M/50-59 12 00:53:48 04:48 12.49
84 SILVEIRA BASTOS ALBERTO   M/50-59 13 00:53:51 04:48 12.48
85 DELPIERRE NICOLAS USBW ROAD TEAM M/20-29 18 00:53:53 04:49 12.47
86 LEJEUNE LUDOVIC   M/30-39 21 00:53:56 04:49 12.46
87 DREZE CHRISTIAN NAC M/50-59 14 00:53:58 04:49 12.45
88 DUPUIS OLIVIER KURISTO M/30-39 22 00:53:59 04:49 12.45
89 WAUTIER SEBASTIEN   M/20-29 19 00:54:04 04:50 12.43
90 IMOTI ERIC SPORTIVAMENTE M/40-49 25 00:54:24 04:51 12.35
91 COCU MANU VERTIGO M/40-49 26 00:54:26 04:52 12.35
92 LELANGUE DANIEL   M/40-49 27 00:54:28 04:52 12.34
93 ELENS QUENTIN   M/30-39 23 00:54:29 04:52 12.33
94 DE GRAVE OLIVIER CSF M/50-59 15 00:54:31 04:52 12.33
95 JOSSEN LUC NATO M/50-59 16 00:54:34 04:52 12.32
96 DE VRIENDT JEFFRY RC NAMUR M/30-39 24 00:54:43 04:53 12.28
97 MATTART DENIS JE COURS A INCOURT M/20-29 20 00:55:02 04:55 12.21
98 MORALES RAFAEL SWIFT M/40-49 28 00:55:05 04:55 12.20
99 FRANCOIS MARC TRAIN 7 M/60-69 3 00:55:09 04:55 12.18
100 RENCKENS AN SPORTIVAMENTE D/30-39 1 00:55:18 04:56 12.15
101 CASTIAUX JOSE VALLEE H M/60-69 4 00:55:26 04:57 12.12
102 PADOVANO QUENTIN CEPAL M/30-39 25 00:55:34 04:58 12.09
103 LEVACQ GUY LDLV M/70 &+ 1 00:55:38 04:58 12.08
104 HOUBEN RAPHAEL USBW ROAD TEAM M/40-49 29 00:55:39 04:58 12.08
105 SIRAGUSA SALVATORE CSF M/40-49 30 00:55:42 04:58 12.06
106 DEBELLE FREDERIC JOGGANS M/40-49 31 00:56:00 05:00 12.00
107 BINKERT MARC LDLV M/50-59 17 00:56:01 05:00 12.00
108 DELCORDE BERNARD HAC M/40-49 32 00:56:04 05:00 11.99
109 VANDERPERREN CEDRIC USBW ROAD TEAM M/40-49 33 00:56:11 05:01 11.96
110 SOREE FABRICE   M/30-39 26 00:56:14 05:01 11.95
111 COCHETEUX PHILIPPE   M/40-49 34 00:56:18 05:02 11.94
112 VAN PARIJS PIERRE-EMMANUEL   M/20-29 21 00:56:20 05:02 11.93
113 BISCOS DAVID JAMES M/40-49 35 00:56:22 05:02 11.92
114 GUSTIN JEROME RONVAU M/30-39 27 00:56:24 05:02 11.91
115 BLAVOUTE NATHALIE USBW ROAD TEAM D/50-59 2 00:56:30 05:03 11.89
116 JACQMIN SERGE NAC M/60-69 5 00:56:36 05:03 11.87
117 VAN LOO ROGER RAM M/60-69 6 00:56:37 05:03 11.87
118 LIBERT DANIEL ANTILOB M/50-59 18 00:56:43 05:04 11.85
119 MEIRA Y DURAN OCTAVIO   M/50-59 19 00:56:46 05:04 11.84
120 BOURQUIN LINDA NAC D/50-59 3 00:56:50 05:04 11.82
121 BOUSQUET SIMON   M/30-39 28 00:57:04 05:06 11.78
122 DEPOUILLE HENRI-FRANCOIS   M/30-39 29 00:57:05 05:06 11.77
123 DELFERIERE DIDIER   M/40-49 36 00:57:06 05:06 11.77
124 LAMOTTE PIERRE USBW ROAD TEAM M/50-59 20 00:57:09 05:06 11.76
125 VERHEISTRAETEN JOHNNY JET M/50-59 21 00:57:13 05:07 11.74
126 DESCAMPS PHILIPPE JAMES M/40-49 37 00:57:23 05:07 11.71
127 WANSON PIERRE   M/50-59 22 00:57:29 05:08 11.69
128 CHAMPLUVIER BENOIT RIWA M/50-59 23 00:57:32 05:08 11.68
129 GHYSELS FREDERIC   M/30-39 30 00:57:33 05:08 11.68
130 VAN REEPINGHEN GREGOIRE   M/20-29 22 00:57:36 05:09 11.67
131 PATERNOSTER CHRISTIAN HOOIBERGLOPERS M/50-59 24 00:57:38 05:09 11.66
132 FALISE DIMITRI VIE LA M/40-49 38 00:57:41 05:09 11.65
133 DEMOULIN OLIVIER JET M/40-49 39 00:57:43 05:09 11.64
134 PREAT NILS   M/20-29 23 00:57:43 05:09 11.64
135 DEWEZ BASTIEN   M/20-29 24 00:57:45 05:09 11.64
136 KAMP OLIVIER MAGICOS M/40-49 40 00:57:46 05:09 11.63
137 SOSMAN EDDY   M/50-59 25 00:57:48 05:10 11.63
138 HOLOFFE DIDIER   M/50-59 26 00:57:50 05:10 11.62
139 BORGINON BERNARD   M/40-49 41 00:57:51 05:10 11.62
140 SPERLICH CHARLES SOETEAM M/30-39 31 00:57:54 05:10 11.61
141 BARBE MICHEL   M/30-39 32 00:57:56 05:10 11.60
142 BICCAI STEFANO SPORTIVAMENTE M/30-39 33 00:57:58 05:11 11.59
143 MAUS JAN DEMARSIN M/50-59 27 00:58:00 05:11 11.59
144 VARD JONATHAN   M/20-29 25 00:58:01 05:11 11.58
145 TIREZ ESTELLE CEPAL D/50-59 4 00:58:03 05:11 11.58
146 SCHELKENS PATRICK RIAAC M/50-59 28 00:58:10 05:12 11.55
147 CAVALERI BALDO   M/60-69 7 00:58:13 05:12 11.54
148 GRANDELET PHILIPPE   M/40-49 42 00:58:16 05:12 11.53
149 CANTILLION ALAIN RONVAU M/40-49 43 00:58:18 05:12 11.53
150 DEVOS RENE JE COURS A INCOURT M/50-59 29 00:58:22 05:13 11.51
151 PAGE THIBAUT JE COURS A INCOURT M/30-39 34 00:58:22 05:13 11.51
152 VAN CAMP LAURENT   M/30-39 35 00:58:25 05:13 11.50
153 VAN CAMP JEAN FRANCOIS   M/40-49 44 00:58:25 05:13 11.50
154 REY PHILIPPE   M/50-59 30 00:58:27 05:13 11.50
155 VERBOOMEN JEAN-LOUIS USBW ROAD TEAM M/50-59 31 00:58:29 05:13 11.49
156 SEGUY DENIS CEPAL M/50-59 32 00:58:30 05:13 11.49
157 LAMBERT CHRISTOPHE NAC M/40-49 45 00:58:32 05:14 11.48
158 LOUIS SEBASTIEN   M/20-29 26 00:58:43 05:15 11.44
159 VAN POUCKE JOSE IND M/50-59 33 00:58:56 05:16 11.40
160 VANDEN EYNDE BENOIT   M/30-39 36 00:58:58 05:16 11.40
161 MOERMAN JONAS RONVAU M/40-49 46 00:59:08 05:17 11.36
162 VAN PASSEL JAN DEMARSIN M/40-49 47 00:59:16 05:18 11.34
163 WOROU MARIE-LAURENCE CEPAL D/40-49 4 00:59:20 05:18 11.33
164 REINARZ RAPHAEL   M/30-39 37 00:59:24 05:18 11.31
165 NAJDOVSKI NICOLAS   M/20-29 27 00:59:26 05:18 11.31
166 DOHET REMY LAURENT USBW ROAD TEAM M/40-49 48 00:59:27 05:18 11.30
167 AMEZ LAURENT   M/30-39 38 00:59:29 05:19 11.30
168 VAN DAELE ISMAEL JE COURS A INCOURT M/20-29 28 00:59:33 05:19 11.28
169 VALCKE ALAIN   M/40-49 49 00:59:36 05:19 11.28
170 MINNE PATRICE JCPMF GENAPPE M/40-49 50 00:59:37 05:19 11.27
171 AKARIOU MOHAMED   M/40-49 51 00:59:44 05:20 11.25
172 ELENS LAURE JE COURS A INCOURT D/30-39 2 00:59:47 05:20 11.24
173 WALRAVENS BENOIT JE COURS A INCOURT M/30-39 39 00:59:49 05:20 11.23
174 KUSSENEERS LUC   M/50-59 34 00:59:50 05:21 11.23
175 BARBIER YVES USBW ROAD TEAM M/50-59 35 00:59:51 05:21 11.23
176 FAUQUEZ THIERRY   M/15-19 5 00:59:54 05:21 11.22
177 HEYMANS STEPHANE   M/40-49 52 01:00:00 05:21 11.20
178 LANNOO MARTIN   M/20-29 29 01:00:02 05:22 11.19
179 WARIN DIDIER BELGRAVE M/50-59 36 01:00:05 05:22 11.18
180 VERVLOESEM XAVIER   M/50-59 37 01:00:06 05:22 11.18
181 JOSSAER FRANKY USBW ROAD TEAM M/40-49 53 01:00:09 05:22 11.17
182 LEGAT VINCENT JAMES M/50-59 38 01:00:10 05:22 11.17
183 JOACHIM NICOLAS   M/40-49 54 01:00:20 05:23 11.14
184 EL BOUJDAINI MOHAMED JOG BEER M/50-59 39 01:00:23 05:23 11.13
185 LECLERCQ BRUNO   M/50-59 40 01:00:26 05:24 11.12
186 GIGANTELLI SEBASTIEN USBW ROAD TEAM M/30-39 40 01:00:28 05:24 11.11
187 PIRSON FLORENCE RIWA D/40-49 5 01:00:31 05:24 11.10
188 LAMOTTE JONATHAN USBW ROAD TEAM M/30-39 41 01:00:35 05:25 11.09
189 MAES DANIEL VERTIGO M/50-59 41 01:00:36 05:25 11.09
190 COULONVAUX SOPHIE JCPMF GENAPPE D/40-49 6 01:00:40 05:25 11.08
191 QUIEVREUX EDDY JET M/50-59 42 01:00:41 05:25 11.07
192 SMEYERS LUDOVIC RCB M/30-39 42 01:00:43 05:25 11.07
193 GALLUCCIO GAEL JCPMF GENAPPE M/30-39 43 01:00:44 05:25 11.06
194 EDRIAT NATHALIE NAC D/50-59 5 01:00:48 05:26 11.05
195 COLSON BENOIT NAC M/50-59 43 01:00:49 05:26 11.05
196 MINNE ETIENNE   M/40-49 55 01:00:51 05:26 11.04
197 WILLAMS STEVEN JAMES M/20-29 30 01:00:54 05:26 11.03
198 PECHEUR SEBASTIEN   M/30-39 44 01:00:55 05:26 11.03
199 DESCAMPS LUC JAMES M/40-49 56 01:00:57 05:27 11.03
200 CAMBIER EMMANUEL   M/30-39 45 01:00:58 05:27 11.02
201 EECKHOUT MARC JET M/40-49 57 01:01:02 05:27 11.01
202 MEYKENS CHRISTOPHE GSKFUNCLUB M/40-49 58 01:01:09 05:28 10.99
203 DAVIS TAGGART BRUSSELSBLUEMOONH3 M/30-39 46 01:01:19 05:28 10.96
204 MINOT JEROME JET M/30-39 47 01:01:20 05:29 10.96
205 MOUCHARD JEAN CHRISTOPHE   M/40-49 59 01:01:24 05:29 10.94
206 STERPIN BENOIT POSTE M/40-49 60 01:01:25 05:29 10.94
207 DELHOVE FRANCOIS NAC M/30-39 48 01:01:29 05:29 10.93
208 BOBER DAVID   M/40-49 61 01:01:36 05:30 10.91
209 DE VLEESCHOWER CHRISTOPHE   M/40-49 62 01:01:40 05:30 10.90
210 HENRY SIMON   M/30-39 49 01:01:41 05:30 10.89
211 SOETE JEREMY   M/30-39 50 01:01:45 05:31 10.88
212 SMET BARBARA RUNNINCLUB D/40-49 7 01:01:46 05:31 10.88
213 DELIEGE HELENE VERTIGO D/40-49 8 01:01:47 05:31 10.88
214 HEURION BERTRAND VERTIGO M/30-39 51 01:01:49 05:31 10.87
215 LAMBION FABION   M/40-49 63 01:01:50 05:31 10.87
216 LAMBERT FRANCOIS RONVAU M/20-29 31 01:01:52 05:31 10.86
217 GHISLAIN NICOLAS   M/30-39 52 01:01:57 05:32 10.85
218 POLUS OLIVIER   M/30-39 53 01:02:00 05:32 10.84
219 VAN DE BORNE MICHAEL   M/30-39 54 01:02:04 05:33 10.83
220 MENU ERIC   M/50-59 44 01:02:10 05:33 10.81
221 GONZALEZ NASTASIA   D/30-39 3 01:02:11 05:33 10.81
222 HASSAN GABRIELA   D/40-49 9 01:02:17 05:34 10.79
223 MURHUBUBA BIJOU JAMES D/30-39 4 01:02:20 05:34 10.78
224 BERTRAND PATRICK JAMES M/50-59 45 01:02:23 05:34 10.77
225 STILMANT DENIS NAC M/50-59 46 01:02:26 05:34 10.76
226 DANDOY DANIEL IRUN@WATERLOO M/50-59 47 01:02:26 05:34 10.76
227 MASSONET PHILIPPE BELGRAVE M/50-59 48 01:02:28 05:35 10.76
228 PARMENTIER KARINE NAC D/40-49 10 01:02:29 05:35 10.75
229 PROVENZANO SYLVIA ACLO D/30-39 5 01:02:34 05:35 10.74
230 BODART JEAN CHARLES   M/20-29 32 01:02:41 05:36 10.72
231 LAURENT LUC RIWA M/40-49 64 01:02:49 05:37 10.70
232 BALTHAZARD JOHNNY CABW M/50-59 49 01:02:55 05:37 10.68
233 COLMANT OLIVIER JE COURS A INCOURT M/50-59 50 01:03:03 05:38 10.66
234 ALVAREZ BLANCO MANUEL JET M/50-59 51 01:03:07 05:38 10.65
235 JANSSENS LAURENT USBW ROAD TEAM M/40-49 65 01:03:07 05:38 10.65
236 JABALLAH MEHER   M/30-39 55 01:03:10 05:38 10.64
237 DE WILDE MARC ANTILOB M/40-49 66 01:03:11 05:38 10.64
238 COPPENS PIERRE   M/60-69 8 01:03:13 05:39 10.63
239 MARCQ KARL USBW ROAD TEAM M/50-59 52 01:03:15 05:39 10.62
240 VANWICHELEN PHILIPPE   M/40-49 67 01:03:17 05:39 10.62
241 GILLET CHRISTIAN SBT M/50-59 53 01:03:18 05:39 10.62
242 STILLEMANS GEORGES   M/50-59 54 01:03:19 05:39 10.61
243 GEORGES CELINE JC RHODIEN D/30-39 6 01:03:21 05:39 10.61
244 BONFITTO ANTONIO VERTIGO M/50-59 55 01:03:22 05:39 10.60
245 THEYS RODRIGUE JOG GAST M/30-39 56 01:03:25 05:40 10.60
246 LEONARD ANNE   D/40-49 11 01:03:27 05:40 10.59
247 WATTIER JEREMY   M/30-39 57 01:03:28 05:40 10.59
248 LECLERCQ SOPHIE   D/20-29 1 01:03:37 05:41 10.56
249 MALVAES STEPHANE VERTIGO M/50-59 56 01:03:38 05:41 10.56
250 GILBERT OLIVIER USBW ROAD TEAM M/40-49 68 01:03:39 05:41 10.56
251 NEEFS BERT HWJ HOEGARDEN M/50-59 57 01:03:43 05:41 10.55
252 MAKHOUKI YASSIR   M/15-19 6 01:03:46 05:42 10.54
253 GERARD PASCAL JCPMFRAMILLIES M/40-49 69 01:03:49 05:42 10.53
254 MICHEL ROLAND JCPMFRAMILLIES M/30-39 58 01:03:51 05:42 10.52
255 ROSNER ANNE NATO D/50-59 6 01:03:52 05:42 10.52
256 BLERO DANIEL JAMES M/40-49 70 01:03:54 05:42 10.52
257 RADDOUX HUGO HWJ HOEGARDEN M/60-69 9 01:03:57 05:43 10.51
258 LUYCKX JOKE HOOIBERGLOPERS D/50-59 7 01:03:59 05:43 10.50
259 VANDERMUTTEN LAURENT   M/40-49 71 01:04:03 05:43 10.49
260 DE FAYS CHRISTIAN N/A M/50-59 58 01:04:10 05:44 10.47
261 MARLOYE LUC JE COURS A INCOURT M/50-59 59 01:04:14 05:44 10.46
262 VERBEEK JEAN-LUC   M/60-69 10 01:04:18 05:44 10.45
263 ROY GEOFFREY   M/15-19 7 01:04:20 05:45 10.45
264 MATHELART PIERRE ANTILOB M/50-59 60 01:04:27 05:45 10.43
265 BAUER SIBYLLE KURISTO D/40-49 12 01:04:29 05:45 10.42
266 PAUWELS NATHALIE   D/40-49 13 01:04:33 05:46 10.41
267 COLPAERT GUIDO RC NAMUR M/70 &+ 2 01:04:40 05:46 10.39
268 MIOR VINCENT   M/40-49 72 01:04:42 05:47 10.39
269 OLIVIER CLAUDE   M/50-59 61 01:04:45 05:47 10.38
270 PATERNOSTRE STEPHANIE JCPMF GENAPPE D/30-39 7 01:04:52 05:47 10.36
271 VERBERGT JEAN MARC   M/40-49 73 01:04:54 05:48 10.35
272 RYCKEBOER MARC RIWA M/50-59 62 01:04:56 05:48 10.35
273 GLIBERT LAETITIA JET D/30-39 8 01:04:59 05:48 10.34
274 LAUWERS BERNARD NAC M/50-59 63 01:05:04 05:49 10.33
275 LAURENT YVES   M/40-49 74 01:05:06 05:49 10.32
276 FEYS JEAN-LOUIS FURALOPE M/50-59 64 01:05:14 05:49 10.30
277 POLOME ALAIN   M/50-59 65 01:05:15 05:50 10.30
278 MIDDEL INE BETA D/50-59 8 01:05:16 05:50 10.30
279 ANGELY OLIVIER WATERLOO RUNNERS M/20-29 33 01:05:17 05:50 10.29
280 VERDONCKT JEAN CHRISTOPHE   M/50-59 66 01:05:20 05:50 10.29
281 DOUTRELIGNE HERVE RIWA M/50-59 67 01:05:21 05:50 10.28
282 LOUIS VALERIE   D/30-39 9 01:05:22 05:50 10.28
283 RANDALL CHRISTOPHER RUN4VILLERS M/50-59 68 01:05:23 05:50 10.28
284 ANGELY GAETAN USBW ROAD TEAM M/60-69 11 01:05:25 05:50 10.27
285 GEORGERY PHILIPPE JCPMF GENAPPE M/50-59 69 01:05:27 05:51 10.27
286 SPITALERI MARIO OTS M/50-59 70 01:05:28 05:51 10.26
287 DECADT ISABELLE RIWA D/30-39 10 01:05:29 05:51 10.26
288 BAUDOUX HELENE SWIFT D/50-59 9 01:05:30 05:51 10.26
289 DOR VINCENT ANTILOB M/30-39 59 01:05:35 05:51 10.25
290 POURTOIS CHRISTIAN   M/40-49 75 01:05:36 05:51 10.24
291 FERIER REMY   M/20-29 34 01:05:40 05:52 10.23
292 CHABEAU VINCIANE ANTILOB D/50-59 10 01:05:41 05:52 10.23
293 SACRE JEAN-FRANCOIS   M/50-59 71 01:05:43 05:52 10.23
294 ZERGHE PIERRE NAC M/40-49 76 01:05:43 05:52 10.23
295 COLASSE DIDIER   M/40-49 77 01:05:45 05:52 10.22
296 LEFEBVRE CEDRIC JAMES M/30-39 60 01:05:50 05:53 10.21
297 LESNE DIDIER LDLV M/50-59 72 01:05:55 05:53 10.19
298 HEYMANS JEAN- PHILIPPE   M/50-59 73 01:05:57 05:53 10.19
299 GODEFRIDI THIERRY   M/60-69 12 01:05:59 05:53 10.18
300 DELHAYE JEAN-CHARLES   M/50-59 74 01:06:01 05:54 10.18
301 COOLS CHRISTIAN JAMES M/50-59 75 01:06:05 05:54 10.17
302 DUGAILLY PIERRE MICHEL   M/40-49 78 01:06:15 05:55 10.14
303 TANGHE CORINNE   D/50-59 11 01:06:16 05:55 10.14
304 CARLUCCIO ALFONSO   M/30-39 61 01:06:17 05:55 10.14
305 RYS JEAN JACQUES NAC M/50-59 76 01:06:22 05:56 10.13
306 LAMOTTE RAPHAEL   M/30-39 62 01:06:22 05:56 10.13
307 DELSART JEAN BAPTISTE   M/30-39 63 01:06:26 05:56 10.12
308 JANSSENS MICHELE   D/40-49 14 01:06:27 05:56 10.11
309 FINE PAUL RCB M/60-69 13 01:06:28 05:56 10.11
310 WAUTHIER SOPHIE   D/30-39 11 01:06:35 05:57 10.09
311 DEWAEL PHILIPPE JAMES M/60-69 14 01:06:37 05:57 10.09
312 NACHTERGAELE PAUL EMILE CS DYLE M/60-69 15 01:06:39 05:57 10.08
313 LEBEAU ERIC JE COURS A INCOURT M/50-59 77 01:06:45 05:58 10.07
314 GROSSEN ROLANDE TEND DET D/60 &+ 1 01:06:52 05:58 10.05
315 DE COSTER ALBERIC   M/20-29 35 01:06:53 05:58 10.05
316 LONDES DIDIER IRUN@WATERLOO M/40-49 79 01:06:58 05:59 10.03
317 VAN MOLLEKOT CHRISTOPHE   M/40-49 80 01:06:59 05:59 10.03
318 NOTEZ NATHALIE NAC D/40-49 15 01:07:05 05:59 10.02
319 THUMERS ANTOINE   M/15-19 8 01:07:07 06:00 10.01
320 DEHON AXEL USBW ROAD TEAM M/40-49 81 01:07:09 06:00 10.01
321 DURIEUX ALAIN   M/40-49 82 01:07:13 06:00 10.00
322 CLINQUART YVES VERTIGO M/30-39 64 01:07:14 06:00 10.00
323 ROB BENOIT STIB M/20-29 36 01:07:16 06:00 9.99
324 ROB VINCENT FLEU M/30-39 65 01:07:17 06:00 9.99
325 DEJONGHE JEAN-PAUL JAMES M/60-69 16 01:07:18 06:01 9.99
326 HOTAT MICHEL JAMES M/40-49 83 01:07:19 06:01 9.98
327 VANPARYS PIERRE JAMES M/20-29 37 01:07:20 06:01 9.98
328 BUISSIN SARAH CS DYLE D/15-19 1 01:07:22 06:01 9.98
329 VANHOUTTE JOHN RIWA M/50-59 78 01:07:27 06:01 9.96
330 GYBELS DANIEL USBW ROAD TEAM M/40-49 84 01:07:35 06:02 9.94
331 GREGOIRE HUGUES   M/40-49 85 01:07:37 06:02 9.94
332 DE PIERPONT RENAUD   M/60-69 17 01:07:42 06:03 9.93
333 MARCHAL ALAN   M/20-29 38 01:07:44 06:03 9.92
334 MOENS FREDERIC   M/30-39 66 01:07:48 06:03 9.91
335 DUNNE JOSEPH CACE M/50-59 79 01:07:51 06:03 9.90
336 VAN HOUTTE ANNE-SOPHIE   D/50-59 12 01:07:51 06:03 9.90
337 VAN NEDERVELDE FABIENNE   D/50-59 13 01:07:53 06:04 9.90
338 LEPINE JEAN-LOUIS JAMES M/50-59 80 01:07:54 06:04 9.90
339 DESMET JULIEN   M/30-39 67 01:07:55 06:04 9.89
340 MERCIER LUC JAMES M/50-59 81 01:08:00 06:04 9.88
341 DAUBIOUL THIERRY   M/40-49 86 01:08:01 06:04 9.88
342 QUINTIN JEAN-JACQUES JE COURS A INCOURT M/50-59 82 01:08:03 06:05 9.88
343 SYMONS PETRO NAC M/60-69 18 01:08:05 06:05 9.87
344 DELFERRIERE FREDERIC JET M/50-59 83 01:08:07 06:05 9.87
345 VOS KARINE VERTIGO D/40-49 16 01:08:11 06:05 9.86
346 DELEU PATRICK VERTIGO M/50-59 84 01:08:12 06:05 9.85
347 MAKANGA EDGAR   M/20-29 39 01:08:14 06:06 9.85
348 HONORE MELANIE VERTIGO D/30-39 12 01:08:16 06:06 9.84
349 MARCHAL MARIE-ANNE   D/50-59 14 01:08:17 06:06 9.84
350 DE BOCK PHILIP JAMES M/40-49 87 01:08:21 06:06 9.83
351 CADET CAROLINE JE COURS A INCOURT D/20-29 2 01:08:21 06:06 9.83
352 CROMBOOM DANIEL ZEMKA M/60-69 19 01:08:24 06:06 9.82
353 TIELEMANS PHILIPPE RUN4VILLERS M/50-59 85 01:08:27 06:07 9.82
354 VAN APPLE ALMA   M/30-39 68 01:08:28 06:07 9.81
355 VANCOLEN YANNICK JCPMFRAMILLIES M/50-59 86 01:08:30 06:07 9.81
356 PUISSANT VALERIE NAC D/40-49 17 01:08:33 06:07 9.80
357 VANPOUCKE CARINE NAC D/50-59 15 01:08:33 06:07 9.80
358 PANNEELS JEAN-JACQUES AXA TEAM M/60-69 20 01:08:34 06:07 9.80
359 ABRAS JEROME   M/20-29 40 01:08:38 06:08 9.79
360 SCHELLENS CHRISTIAN NAC M/50-59 87 01:08:39 06:08 9.79
361 LAMBERT OLIVIER   M/40-49 88 01:08:43 06:08 9.78
362 DECAMP MARTINE   D/60 &+ 2 01:08:46 06:08 9.77
363 BREYNE CHANTAL NAC D/40-49 18 01:08:49 06:09 9.77
364 BAHBOUT ILAN   M/40-49 89 01:08:56 06:09 9.75
365 QUERTAINMONT PHILIPPE RIWA M/70 &+ 3 01:08:59 06:10 9.74
366 DEFERIERE JULIE JAMES D/30-39 13 01:08:59 06:10 9.74
367 ALLONSIUS PASCAL JAMES M/50-59 88 01:09:01 06:10 9.74
368 PREVOST NICOLAS RUNNING GREZ M/40-49 90 01:09:02 06:10 9.73
369 VANCUTSEM BERTRAND JET M/30-39 69 01:09:02 06:10 9.73
370 BUISSIN MICHEL GSKFUNCLUB M/40-49 91 01:09:04 06:10 9.73
371 LEFEVRE CECILE VERTIGO D/40-49 19 01:09:05 06:10 9.73
372 LEJEUNE JEAN HAC M/60-69 21 01:09:06 06:10 9.73
373 PREAT JEAN PIERRE   M/20-29 41 01:09:08 06:10 9.72
374 FABRY PATRICK   M/50-59 89 01:09:09 06:10 9.72
375 VAN PARIJS CLEMENTINE   D/20-29 3 01:09:11 06:11 9.71
376 NOEL BEATRICE KURISTO D/30-39 14 01:09:17 06:11 9.70
377 MELANGE LEON KURISTO M/60-69 22 01:09:18 06:11 9.70
378 VAN LANGENDONCK LUC HOOIBERGLOPERS M/40-49 92 01:09:19 06:11 9.69
379 VOKAER ETIENNE IRUN@WATERLOO M/60-69 23 01:09:25 06:12 9.68
380 GOWIE CHRISTIAN   M/50-59 90 01:09:31 06:12 9.67
381 LORAUX ETIENNE AXA TEAM M/50-59 91 01:09:32 06:13 9.66
382 MAROT ANNE USBW ROAD TEAM D/50-59 16 01:09:33 06:13 9.66
383 SACRE QUENTIN   M/30-39 70 01:09:35 06:13 9.66
384 CAISE CARINE RUN4VILLERS D/50-59 17 01:09:38 06:13 9.65
385 VANELSLANDER RINUS   M/50-59 92 01:09:51 06:14 9.62
386 BARRY HELENE USBW ROAD TEAM D/50-59 18 01:10:02 06:15 9.60
387 LE LIEVRE FREDDY KURISTO M/50-59 93 01:10:04 06:15 9.59
388 LISCHETTI JEAN FRANCOIS   M/40-49 93 01:10:06 06:16 9.59
389 CONREUR PAULINE   D/20-29 4 01:10:12 06:16 9.57
390 SANGLIER GERARD ESM M/60-69 24 01:10:15 06:16 9.57
391 LEYSSSENS VALERIE   D/40-49 20 01:10:18 06:17 9.56
392 GHERAILLE JEAN-MARC   M/50-59 94 01:10:20 06:17 9.55
393 WERRES MARC   M/50-59 95 01:10:30 06:18 9.53
394 NEESEN ERIC USBW ROAD TEAM M/50-59 96 01:10:38 06:18 9.51
395 DUONG SUNG PATRICIA WATERLOO RUNNERS D/40-49 21 01:10:39 06:18 9.51
396 VANDEN DRIESCH FRANCOIS DACM M/50-59 97 01:10:42 06:19 9.50
397 VILLATTE VERONIQUE   D/50-59 19 01:10:43 06:19 9.50
398 DEGRAEVE HILDE RUN4VILLERS D/50-59 20 01:10:44 06:19 9.50
399 SEGGIO PINO NAC M/70 &+ 4 01:10:45 06:19 9.50
400 SASSEL BENEDICTE VERTIGO D/40-49 22 01:10:46 06:19 9.50
401 DEBRABANDERE FRANCOIS VERTIGO M/30-39 71 01:10:48 06:19 9.49
402 PISHOUT CHARLES EMMANUEL   M/40-49 94 01:10:49 06:19 9.49
403 HOUBA ISABELLE JCPMF GENAPPE D/20-29 5 01:10:53 06:20 9.48
404 VANVILTHOVEN GUILLAUME   M/15-19 9 01:10:56 06:20 9.47
405 SENNESAEL ANNE LAURE ENJAMBEE D/20-29 6 01:10:57 06:20 9.47
406 VANDEN BORRE EMILE RIWA M/70 &+ 5 01:10:58 06:20 9.47
407 NOTTEBART DANIEL PARA CL M/60-69 25 01:11:01 06:20 9.46
408 BURY FRANCOISE ACLO D/60 &+ 3 01:11:02 06:21 9.46
409 MAILLAERT YANNICK   M/40-49 95 01:11:04 06:21 9.46
410 PIRAUX DOMINIQUE JAMES M/60-69 26 01:11:13 06:22 9.44
411 PUTSEYS LAURENT   M/30-39 72 01:11:16 06:22 9.43
412 MELARD JEAN-LUC JAMES M/60-69 27 01:11:23 06:22 9.41
413 DESCAMPS XAVIER   M/50-59 98 01:11:31 06:23 9.40
414 FOLON JENNYFER   D/20-29 7 01:11:33 06:23 9.39
415 SCHARPE CHARLES JE COURS A INCOURT M/50-59 99 01:11:53 06:25 9.35
416 VLAMINCK NATACHA   D/40-49 23 01:11:53 06:25 9.35
417 DE MEES MARC HOOIBERGLOPERS M/70 &+ 6 01:12:04 06:26 9.32
418 BABYLAS JOCELYNE JCPMFRAMILLIES D/40-49 24 01:12:07 06:26 9.32
419 VREVEN LAURENT JAMES M/40-49 96 01:12:09 06:27 9.31
420 LECLERCQ DANIEL PARA CL M/50-59 100 01:12:19 06:27 9.29
421 VANVILTHOVEN DAVID   M/40-49 97 01:12:20 06:28 9.29
422 WILLIOT CHANTAL JAMES D/50-59 21 01:12:22 06:28 9.29
423 DE GREZ THIERRY JAMES M/50-59 101 01:12:24 06:28 9.28
424 THIRIART VERA HOOIBERGLOPERS D/50-59 22 01:12:26 06:28 9.28
425 KUYPERS EDDY JAMES M/60-69 28 01:12:29 06:28 9.27
426 AUBRY AURELIEN   M/20-29 42 01:12:45 06:30 9.24
427 LEFEVRE ISABELLE JAMES D/40-49 25 01:12:53 06:30 9.22
428 VELGHE CLAUDE   M/50-59 102 01:12:58 06:31 9.21
429 GEERAERTS JOS CSF M/50-59 103 01:13:01 06:31 9.20
430 BADIANO VIRGINIE   D/40-49 26 01:13:06 06:32 9.19
431 ROCHEZ QUENTIN   M/30-39 73 01:13:11 06:32 9.18
432 MOREAU FRANCOISE NAC D/50-59 23 01:13:16 06:32 9.17
433 DEWIGNE BERNARD CS DYL.G M/50-59 104 01:13:21 06:33 9.16
434 RENDERS LUC JE COURS A INCOURT M/50-59 105 01:13:24 06:33 9.16
435 SAUERTEIG KARIN CEPAL D/40-49 27 01:13:27 06:33 9.15
436 BILTIAU NATHALIE   D/30-39 15 01:13:33 06:34 9.14
437 VAN NIEUWENHOVEN MARTINE ANTILOB D/50-59 24 01:13:39 06:35 9.12
438 VAN HAUTE PAULINE JE COURS A INCOURT D/20-29 8 01:13:41 06:35 9.12
439 DUPONT PIERRE JAMES M/60-69 29 01:13:42 06:35 9.12
440 CROONENBORGHS ANNICK JCPMF GENAPPE D/50-59 25 01:13:48 06:35 9.11
441 THOMAS STEPHANIE JCPMF GENAPPE D/30-39 16 01:13:49 06:35 9.10
442 EYDER JULIEN   M/30-39 74 01:13:51 06:36 9.10
443 LAGAERT RITA JET D/60 &+ 4 01:14:07 06:37 9.07
444 DURITA JANIKA JET M/50-59 106 01:14:08 06:37 9.06
445 GROGNET SONIA JAMES D/50-59 26 01:14:10 06:37 9.06
446 CINCOTTA AUDE   D/20-29 9 01:14:11 06:37 9.06
447 BROHEZ BRUNO   M/40-49 98 01:14:16 06:38 9.05
448 CLOOSTERMANS PATRICE KURISTO M/60-69 30 01:14:21 06:38 9.04
449 DUBUS CHRISTIAN   M/40-49 99 01:14:25 06:39 9.03
450 REGNIER ANNICK JAMES D/50-59 27 01:14:30 06:39 9.02
451 SMAL PATRICK JAMES M/50-59 107 01:14:31 06:39 9.02
452 DELAERE BENEDICTE JAMES D/50-59 28 01:14:33 06:39 9.01
453 DECOCQ FRANCOISE JAMES D/50-59 29 01:14:34 06:39 9.01
454 ROPPE JEROEN   M/40-49 100 01:14:35 06:40 9.01
455 COLSON CLEMENCE NAC D/20-29 10 01:14:39 06:40 9.00
456 GASKIN RUDI JET M/50-59 108 01:14:45 06:40 8.99
457 DUSSART JEAN-PIERRE   M/60-69 31 01:14:48 06:41 8.98
458 MELOTTE NICOLAS   M/20-29 43 01:14:48 06:41 8.98
459 BONVARLEZ RUDI   M/50-59 109 01:14:52 06:41 8.98
460 JOISSAINS BRIGITTE   D/50-59 30 01:14:55 06:41 8.97
461 GILLES ALAIN JODOIGNE M/60-69 32 01:14:59 06:42 8.96
462 VAN LAETHEM GUY RIWA M/50-59 110 01:15:03 06:42 8.95
463 CHARLIER BAUDOUIN JET M/60-69 33 01:15:06 06:42 8.95
464 BLATTER NATHALIE   D/40-49 28 01:15:10 06:43 8.94
465 DEKEYSER CARINE NAC D/40-49 29 01:15:22 06:44 8.92
466 PLETINCKX MARTINE CEPAL D/60 &+ 5 01:15:26 06:44 8.91
467 STOURME MURIEL   D/20-29 11 01:15:29 06:44 8.90
468 DOS REIS LIDIA HAC D/50-59 31 01:15:30 06:44 8.90
469 LOUETTE LAURENCE JAMES D/50-59 32 01:15:34 06:45 8.89
470 DEFERIERE MICHEL JAMES M/60-69 34 01:15:36 06:45 8.89
471 KORSTEN FRANCIS JAMES M/50-59 111 01:15:37 06:45 8.89
472 DEMORTIER JEAN-FRANCOIS JAMES M/40-49 101 01:15:39 06:45 8.88
473 RAMIER NICOLE JAMES D/60 &+ 6 01:15:40 06:45 8.88
474 DAUPHIN JACQUES JAMES M/50-59 112 01:15:41 06:45 8.88
475 BRAMS HUGUES JAMES M/50-59 113 01:15:43 06:46 8.88
476 BISSOT CHRISTINE   D/40-49 30 01:15:50 06:46 8.86
477 BAIKRICH GUY RCB M/70 &+ 7 01:15:51 06:46 8.86
478 DE BELDER MARC HULS M/50-59 114 01:15:53 06:47 8.86
479 DUMONT DOMINIQUE JET D/50-59 33 01:16:02 06:47 8.84
480 ANDRIESSENS BRIGITTE JET D/50-59 34 01:16:04 06:48 8.83
481 MASURE BETTY USBW ROAD TEAM D/40-49 31 01:16:09 06:48 8.82
482 DEVOS ANTHONY   M/50-59 115 01:16:12 06:48 8.82
483 DUCROCQ EMELINE   D/20-29 12 01:16:16 06:49 8.81
484 CHEVALIER CEDRIC   M/40-49 102 01:16:17 06:49 8.81
485 DUPONT HENRI JAMES M/50-59 116 01:16:18 06:49 8.81
486 HOCK FRANCOISE JAMES D/50-59 35 01:16:28 06:50 8.79
487 BARBE SIMON   M/30-39 75 01:16:44 06:51 8.76
488 HUPPE STEPHANE RONVAU M/50-59 117 01:16:49 06:52 8.75
489 PENING CHRISTIAN NAC M/60-69 35 01:16:51 06:52 8.74
490 STOCKMANS THIBAUT NAC M/30-39 76 01:16:58 06:52 8.73
491 DUPLAT FRANCOISE NAC D/40-49 32 01:17:08 06:53 8.71
492 DERMONT WILLY   M/60-69 36 01:17:15 06:54 8.70
493 NYSSEN SEBASTIEN USBW ROAD TEAM M/30-39 77 01:17:20 06:54 8.69
494 VANOPPHEM ANTHONY   M/30-39 78 01:17:21 06:54 8.69
495 VANPARYS MICHEL JAMES M/50-59 118 01:17:23 06:55 8.68
496 VANHOUCHE MICHEL   M/50-59 119 01:17:24 06:55 8.68
497 DELODDERE CHRISTEL NAC D/30-39 17 01:17:26 06:55 8.68
498 VANHUFFELEN JOSSELINE AXA TEAM D/60 &+ 7 01:17:28 06:55 8.67
499 DUMONT LUDIVINE NAC D/40-49 33 01:17:29 06:55 8.67
500 FLAMAND VALERIE AXA TEAM D/50-59 36 01:17:31 06:55 8.67
501 KEYMOLEN ROGER JC OETINGEN M/60-69 37 01:17:54 06:57 8.63
502 POELMAN JOELLE   D/30-39 18 01:18:10 06:59 8.60
503 POELMAN LAURE   D/20-29 13 01:18:11 06:59 8.60
504 SMEYERS NICOLAS JOGGANS M/20-29 44 01:18:13 06:59 8.59
505 WATTIEZ LESLIE   D/20-29 14 01:18:15 06:59 8.59
506 BEQUET GINETTE JET D/60 &+ 8 01:18:18 06:59 8.58
507 BRUNO GAETANO   M/50-59 120 01:18:37 07:01 8.55
508 LEKEUX JEAN-MARIE CABW M/50-59 121 01:18:41 07:02 8.54
509 BAUDUIN DIDIER NAC M/40-49 103 01:18:43 07:02 8.54
510 LEROY SARAH JCPMFRAMILLIES D/15-19 2 01:18:45 07:02 8.53
511 VLAMINCK THIERRY USBW ROAD TEAM M/40-49 104 01:18:50 07:02 8.52
512 GEULETTE NATHALIE   D/50-59 37 01:18:53 07:03 8.52
513 PECHEUR MURIELLE JCPMF EVERE D/50-59 38 01:18:54 07:03 8.52
514 CLAES CHRISTINE RUNNING GREZ D/40-49 34 01:18:55 07:03 8.52
515 LAHAYE OLIVIER RUNNING GREZ M/40-49 105 01:19:00 07:03 8.51
516 JORDENS RENE   M/50-59 122 01:19:04 07:04 8.50
517 COPPENS PHILIPPE RUN4VILLERS M/50-59 123 01:19:06 07:04 8.50
518 WIJNEN LUC RIWA M/50-59 124 01:19:14 07:04 8.48
519 VAN PARIJS STEPHANIE   D/20-29 15 01:19:16 07:05 8.48
520 MATHIEU SANDRINE NAC D/30-39 19 01:19:22 07:05 8.47
521 BERVOET SABINE JOG CLUBJE D/50-59 39 01:19:33 07:06 8.45
522 PAUWELS MARC JOG CLUBJE M/50-59 125 01:19:34 07:06 8.45
523 DEHON EMMANUEL VERTIGO M/50-59 126 01:19:36 07:06 8.44
524 GLENISSON EDDY LDLV M/70 &+ 8 01:19:37 07:07 8.44
525 SENGIER PIERRE   M/20-29 45 01:19:38 07:07 8.44
526 VANCRAENENBROECK PASCAL LDLV M/50-59 127 01:19:42 07:07 8.43
527 PAULUS MARC JC OETINGEN M/60-69 38 01:19:59 07:08 8.40
528 VAN EESBEEK CHRISTIAN ACLO M/60-69 39 01:20:05 07:09 8.39
529 MATHIEU DONATIENNE   D/30-39 20 01:20:12 07:10 8.38
530 VALET CARINE JAMES D/50-59 40 01:20:14 07:10 8.38
531 SPINOY CHRISTINE   D/50-59 41 01:20:28 07:11 8.35
532 ACCARAIN PASCAL CEPAL M/50-59 128 01:20:28 07:11 8.35
533 RAES AURELIE   D/30-39 21 01:20:34 07:12 8.34
534 PILATE GUY VALLEE H M/70 &+ 9 01:21:03 07:14 8.29
535 CRUCQ ANNE SOPHIE   D/40-49 35 01:21:12 07:15 8.28
536 LAMBOT STEPHANIE USBW ROAD TEAM D/30-39 22 01:21:39 07:17 8.23
537 LEFEVRE DELPHINE JCPMFRAMILLIES D/30-39 23 01:22:19 07:21 8.16
538 WATTIER MELANIE   D/30-39 24 01:22:20 07:21 8.16
539 WAUCAMPT REGGIE ANTILOB M/60-69 40 01:22:25 07:22 8.15
540 VLAMINCK GEORGET TEND DET M/70 &+ 10 01:22:25 07:22 8.15
541 FETU THIERRY IRUN@WATERLOO M/40-49 106 01:22:27 07:22 8.15
542 LAURIA CLAUDIO STIB M/30-39 79 01:22:46 07:23 8.12
543 TORTOLANI ANGELO STIB M/30-39 80 01:22:47 07:23 8.12
544 GENOT PASCAL RUN4VILLERS M/40-49 107 01:23:07 07:25 8.09
545 TRAEN MARTINE JET D/50-59 42 01:23:25 07:27 8.06
546 VANDERGHEYNST CLEMENCE NAC D/20-29 16 01:23:28 07:27 8.05
547 DE RIDDER MANU   M/30-39 81 01:23:29 07:27 8.05
548 GALLEZ MICHELE RIWA D/40-49 36 01:23:32 07:28 8.04
549 HAUTECOEUR WIVINE NAC D/40-49 37 01:23:33 07:28 8.04
550 PENING MAUD NAC D/40-49 38 01:23:36 07:28 8.04
551 THIBAUT PATRICIA JAMES D/50-59 43 01:23:38 07:28 8.04
552 ARNO PATSY JAMES D/40-49 39 01:23:40 07:28 8.03
553 DE ROECK MONIQUE JET D/50-59 44 01:24:12 07:31 7.98
554 GORDON FRANCINE   D/40-49 40 01:24:33 07:33 7.95
555 WEES XAVIER   M/30-39 82 01:24:38 07:33 7.94
556 FREMY ANNE JAMES D/50-59 45 01:24:41 07:34 7.94
557 STAS BENOIT   M/20-29 46 01:24:42 07:34 7.93
558 PAULUS BENOIT RC NAMUR M/30-39 83 01:25:01 07:35 7.90
559 VANDERLIN CHARLENE NAC D/20-29 17 01:25:13 07:37 7.89
560 SOETE NANCY SOETEAM D/30-39 25 01:25:49 07:40 7.83
561 COLLARD BERNADETTE JET D/60 &+ 9 01:25:50 07:40 7.83
562 JACQUEMIN DOMINIQUE JOGGANS D/40-49 41 01:26:31 07:43 7.77
563 VAN STEENWINKEL RITA SPVI D/50-59 46 01:26:40 07:44 7.75
564 BERBE ELS   D/50-59 47 01:26:44 07:45 7.75
565 DENRUYTER RENE JCPMF GENAPPE M/60-69 41 01:26:48 07:45 7.74
566 MACKINTOSH EDOUARD   M/60-69 42 01:27:06 07:47 7.72
567 GRANDMONT ANITA JCPMF GENAPPE D/40-49 42 01:27:16 07:48 7.70
568 GECELE CAROLINE JCPMF GENAPPE D/50-59 48 01:27:40 07:50 7.67
569 VERHEYEN VERONIQUE JAMES D/40-49 43 01:27:58 07:51 7.64
570 BEECKMANS JOSIANE JCPMFORME D/60 &+ 10 01:28:10 07:52 7.62
571 HERAUT JEAN-MARY SPT WAVRE M/50-59 129 01:28:46 07:56 7.57
572 MUNIZ DULCE RCB D/60 &+ 11 01:29:00 07:57 7.55
573 RADELET ERIC   M/50-59 130 01:29:03 07:57 7.55
574 CLINCKART CORINNE   D/50-59 49 01:29:05 07:57 7.54
575 CARBONARO GIANNI   M/40-49 108 01:29:16 07:58 7.53
576 VERBIEST CARINE JAMES D/50-59 50 01:29:18 07:58 7.53
577 DE BRABANT CARINE JAMES D/50-59 51 01:29:39 08:00 7.50
578 DUCHENNE MARTINE JAMES D/50-59 52 01:29:41 08:00 7.49
579 CHONQUEREZ VERONIQUE LDLV D/50-59 53 01:30:00 08:02 7.47
580 BRASSART JOEL   M/50-59 131 01:31:44 08:11 7.33
581 MORMAL ANOUK USBW ROAD TEAM D/40-49 44 01:32:12 08:14 7.29
582 LOOZE VINCENT JAMES M/50-59 132 01:33:19 08:20 7.20
583 BURNY ALAIN JAMES M/60-69 43 01:36:32 08:37 6.96
584 MAHY SYLVIE JET D/40-49 45 01:37:11 08:41 6.91
585 LAMBERT FRANCIS RONVAU M/60-69 44 01:37:15 08:41 6.91
586 FERAILLE DANIELLE   D/50-59 54 01:37:51 08:44 6.87
587 DEFRANCE JACQUES CSF M/60-69 45 01:47:26 09:36 6.26
588 VAN MEENSEL VIVIANE   D/60 &+ 12 01:48:00 09:39 6.22
589 LEHAIRE PHILIPPE JET M/60-69 46 01:48:00 09:39 6.22
590 SOUILLARD CATHERINE RCB D/60 &+ 13 01:48:00 09:39 6.22
591 NALLY EVELYN CES D/60 &+ 14 01:48:00 09:39 6.22
592 SIMONET BERNARD NATO M/50-59 133 01:48:00 09:39 6.22
593 DENIS MARCEL RONVAU M/70 &+ 11 01:48:00 09:39 6.22